Time;durP1;ratioP1;P1;durP2;ratioP2;P2;SDS_P1;SDS_P2;PMS_P1;PMS_P2;Temp;Humidity;BMP_temperature;BMP_pressure;BME280_temperature;BME280_humidity;BME280_pressure;Samples;Min_cycle;Max_cycle;Signal;HPM_P1;HPM_P2
2023/09/13 00:01:29;;;;;;;23.13;9.13;;;;;;;20.74;100.00;100150.56;5036947;28;20230;-78
2023/09/13 00:03:58;;;;;;;53.95;21.00;;;;;;;20.68;100.00;100142.75;5038458;28;20229;-79
2023/09/13 00:06:25;;;;;;;31.65;14.80;;;;;;;20.72;100.00;100136.31;5038746;28;20229;-78
2023/09/13 00:08:51;;;;;;;65.95;19.55;;;;;;;20.76;100.00;100136.16;5030716;28;20227;-78
2023/09/13 00:11:18;;;;;;;50.90;46.25;;;;;;;20.72;100.00;100129.13;5025484;28;20721;-78
2023/09/13 00:13:45;;;;;;;75.90;70.03;;;;;;;20.77;100.00;100116.41;5027115;28;20237;-78
2023/09/13 00:16:12;;;;;;;44.08;24.88;;;;;;;20.80;100.00;100114.53;5016940;28;20239;-78
2023/09/13 00:18:39;;;;;;;42.50;29.48;;;;;;;20.84;100.00;100121.56;5026671;28;20223;-78
2023/09/13 00:21:08;;;;;;;45.25;40.95;;;;;;;20.80;100.00;100125.28;5035944;28;20596;-78
2023/09/13 00:23:35;;;;;;;23.40;14.02;;;;;;;20.75;100.00;100112.91;5039503;28;20246;-78
2023/09/13 00:26:02;;;;;;;52.60;13.57;;;;;;;20.75;100.00;100112.03;5019919;28;20486;-78
2023/09/13 00:28:32;;;;;;;27.77;16.98;;;;;;;20.73;100.00;100112.06;5031954;28;20288;-78
2023/09/13 00:30:58;;;;;;;58.67;22.90;;;;;;;20.74;100.00;100113.81;5021053;28;20226;-78
2023/09/13 00:33:25;;;;;;;33.60;26.83;;;;;;;20.71;100.00;100113.94;5033375;28;20226;-78
2023/09/13 00:35:56;;;;;;;50.55;15.15;;;;;;;20.76;100.00;100119.16;5030210;28;20222;-78
2023/09/13 00:38:22;;;;;;;36.70;18.75;;;;;;;20.71;100.00;100127.38;5039195;28;20727;-78
2023/09/13 00:40:49;;;;;;;61.97;37.97;;;;;;;20.69;100.00;100126.56;5020650;28;20278;-78
2023/09/13 00:43:16;;;;;;;41.65;37.80;;;;;;;20.62;100.00;100135.78;5039350;28;20245;-78
2023/09/13 00:45:43;;;;;;;72.53;65.18;;;;;;;20.57;100.00;100136.88;5039748;28;20276;-79
2023/09/13 00:48:10;;;;;;;104.45;96.80;;;;;;;20.56;100.00;100148.56;5020727;28;20222;-78
2023/09/13 00:50:40;;;;;;;97.00;90.80;;;;;;;20.45;100.00;100149.84;5040122;28;20228;-78
2023/09/13 00:53:19;;;;;;;50.13;45.55;;;;;;;20.12;100.00;100151.88;5031934;28;20234;-78
2023/09/13 00:55:49;;;;;;;85.78;78.75;;;;;;;20.06;100.00;100154.75;5030197;28;20222;-78
2023/09/13 00:58:18;;;;;;;30.35;22.95;;;;;;;19.97;100.00;100171.19;5032967;28;20229;-79
2023/09/13 01:00:48;;;;;;;51.03;34.95;;;;;;;19.99;100.00;100182.75;5037976;28;20226;-79
2023/09/13 01:03:16;;;;;;;34.83;18.42;;;;;;;19.93;100.00;100184.75;5034245;28;20315;-78
2023/09/13 01:05:44;;;;;;;34.75;31.00;;;;;;;19.84;100.00;100185.06;5015486;28;20228;-79
2023/09/13 01:08:11;;;;;;;41.78;27.15;;;;;;;19.98;100.00;100213.19;5010568;28;20234;-79
2023/09/13 01:10:37;;;;;;;27.85;15.85;;;;;;;19.85;100.00;100205.59;5033132;28;20230;-78
2023/09/13 01:13:04;;;;;;;66.28;24.33;;;;;;;19.83;100.00;100215.50;5028200;28;20242;-78
2023/09/13 01:15:35;;;;;;;24.88;17.05;;;;;;;19.82;100.00;100238.78;5039856;28;20242;-78
2023/09/13 01:18:19;;;;;;;59.97;14.65;;;;;;;19.68;100.00;100247.25;5027907;28;21272;-78
2023/09/13 01:20:58;;;;;;;43.22;19.80;;;;;;;19.74;100.00;100252.44;5023999;28;20222;-79
2023/09/13 01:23:34;;;;;;;42.97;25.20;;;;;;;19.78;100.00;100263.94;5030632;28;20227;-79
2023/09/13 01:26:38;;;;;;;63.10;21.65;;;;;;;19.74;100.00;100270.34;5034184;28;20229;-78
2023/09/13 01:29:06;;;;;;;41.10;34.38;;;;;;;19.68;100.00;100283.94;5024550;28;20249;-78
2023/09/13 01:31:33;;;;;;;48.92;44.50;;;;;;;19.65;100.00;100292.09;5032320;28;20237;-78
2023/09/13 01:34:00;;;;;;;80.18;29.67;;;;;;;19.49;100.00;100284.44;5006375;28;20258;-78
2023/09/13 01:36:28;;;;;;;38.95;35.38;;;;;;;19.52;100.00;100301.41;5038285;28;20232;-78
2023/09/13 01:38:55;;;;;;;72.30;42.35;;;;;;;19.46;100.00;100307.78;5010738;28;20222;-78
2023/09/13 01:41:36;;;;;;;103.95;95.78;;;;;;;19.45;100.00;100309.59;5015489;28;20242;-79
2023/09/13 01:44:03;;;;;;;85.45;73.85;;;;;;;19.39;100.00;100325.84;5023841;28;20290;-78
2023/09/13 01:46:35;;;;;;;68.70;63.15;;;;;;;19.38;100.00;100326.78;5014904;28;20231;-78
2023/09/13 01:49:03;;;;;;;67.05;15.98;;;;;;;19.32;100.00;100332.31;5018121;28;20226;-78
2023/09/13 01:51:30;;;;;;;28.85;24.80;;;;;;;19.40;100.00;100348.19;5048921;28;20238;-78
2023/09/13 01:53:59;;;;;;;67.20;37.53;;;;;;;19.23;100.00;100347.78;5022183;28;20237;-79
2023/09/13 01:56:26;;;;;;;63.55;58.28;;;;;;;19.25;100.00;100351.31;5031610;28;20219;-78
2023/09/13 01:58:53;;;;;;;72.15;47.83;;;;;;;19.26;100.00;100356.63;5032342;28;20708;-78
2023/09/13 02:01:20;;;;;;;66.65;46.10;;;;;;;19.37;100.00;100359.88;5032110;28;20224;-78
2023/09/13 02:03:47;;;;;;;75.57;69.07;;;;;;;19.32;100.00;100347.53;5019861;28;20701;-78
2023/09/13 02:06:14;;;;;;;64.00;58.70;;;;;;;19.36;100.00;100360.81;5032623;28;20229;-78
2023/09/13 02:08:41;;;;;;;83.45;77.28;;;;;;;19.38;100.00;100364.31;5039972;28;20277;-78
2023/09/13 02:11:09;;;;;;;112.20;105.05;;;;;;;19.37;100.00;100362.56;5023573;28;20234;-78
2023/09/13 02:13:35;;;;;;;113.25;105.95;;;;;;;19.39;100.00;100360.72;5050211;28;20237;-78
2023/09/13 02:16:03;;;;;;;80.18;71.63;;;;;;;19.28;100.00;100352.09;5037280;28;20230;-78
2023/09/13 02:18:30;;;;;;;88.40;81.63;;;;;;;19.31;100.00;100360.06;5017243;28;20682;-78
2023/09/13 02:20:57;;;;;;;59.33;32.60;;;;;;;19.32;100.00;100359.13;5020659;28;20223;-79
2023/09/13 02:23:24;;;;;;;44.85;40.65;;;;;;;19.30;100.00;100355.63;5021958;28;20223;-78
2023/09/13 02:25:50;;;;;;;53.95;31.23;;;;;;;19.32;100.00;100358.25;5028773;28;20230;-78
2023/09/13 02:28:17;;;;;;;38.90;17.83;;;;;;;19.35;100.00;100366.22;5027378;28;20238;-78
2023/09/13 02:30:45;;;;;;;32.25;24.48;;;;;;;19.35;100.00;100359.03;5021235;28;20234;-79
2023/09/13 02:33:13;;;;;;;36.97;18.33;;;;;;;19.35;100.00;100358.16;5033093;28;20326;-78
2023/09/13 02:35:39;;;;;;;36.53;28.70;;;;;;;19.35;100.00;100361.72;5036703;28;20233;-78
2023/09/13 02:38:06;;;;;;;48.28;27.42;;;;;;;19.34;100.00;100359.97;5022324;28;20231;-78
2023/09/13 02:40:33;;;;;;;44.45;39.90;;;;;;;19.30;100.00;100363.66;5024443;28;20234;-78
2023/09/13 02:42:59;;;;;;;66.57;39.00;;;;;;;19.29;100.00;100361.91;5015768;28;20227;-78
2023/09/13 02:45:27;;;;;;;34.03;29.90;;;;;;;19.26;100.00;100364.66;5042235;28;20283;-78
2023/09/13 02:47:53;;;;;;;54.33;22.63;;;;;;;19.23;100.00;100356.72;5031164;28;20227;-78
2023/09/13 02:50:21;;;;;;;35.80;16.58;;;;;;;19.16;100.00;100358.69;5039518;28;20227;-78
2023/09/13 02:52:47;;;;;;;54.30;17.42;;;;;;;19.12;100.00;100366.84;5016430;28;20238;-78
2023/09/13 02:55:14;;;;;;;34.08;8.40;;;;;;;19.10;100.00;100371.38;5005723;28;20226;-78
2023/09/13 02:57:41;;;;;;;24.77;10.98;;;;;;;19.14;100.00;100378.41;5025549;28;20263;-78
2023/09/13 03:00:09;;;;;;;30.63;10.05;;;;;;;19.15;100.00;100380.16;5031715;28;20741;-78
2023/09/13 03:02:36;;;;;;;33.00;8.82;;;;;;;19.17;100.00;100376.53;5031787;28;20238;-78
2023/09/13 03:05:05;;;;;;;58.35;14.70;;;;;;;19.15;100.00;100375.69;5018137;28;20245;-79
2023/09/13 03:07:32;;;;;;;34.10;20.40;;;;;;;19.10;100.00;100374.03;5025793;28;20254;-78
2023/09/13 03:09:58;;;;;;;46.55;17.90;;;;;;;19.07;100.00;100382.16;5039484;28;20719;-78
2023/09/13 03:12:25;;;;;;;40.95;27.98;;;;;;;19.08;100.00;100378.56;5039762;28;20256;-78
2023/09/13 03:14:54;;;;;;;73.25;63.35;;;;;;;19.04;100.00;100388.50;5026553;28;20717;-78
2023/09/13 03:17:21;;;;;;;86.03;80.43;;;;;;;19.06;100.00;100381.28;5025747;28;20642;-78
2023/09/13 03:19:48;;;;;;;83.85;76.57;;;;;;;19.12;100.00;100385.59;5027865;28;20227;-78
2023/09/13 03:22:14;;;;;;;68.32;62.47;;;;;;;19.12;100.00;100388.28;5033436;28;20229;-78
2023/09/13 03:24:41;;;;;;;53.83;49.30;;;;;;;19.16;100.00;100390.84;5044966;28;20693;-79
2023/09/13 03:27:08;;;;;;;53.03;48.08;;;;;;;19.16;100.00;100396.22;5014950;28;20226;-78
2023/09/13 03:29:35;;;;;;;91.05;85.00;;;;;;;19.20;100.00;100391.66;5030850;28;20230;-78
2023/09/13 03:32:02;;;;;;;54.80;26.58;;;;;;;19.13;100.00;100385.56;5029623;28;20235;-78
2023/09/13 03:34:29;;;;;;;59.00;54.20;;;;;;;19.14;100.00;100383.75;5030097;28;20291;-78
2023/09/13 03:36:55;;;;;;;72.88;55.35;;;;;;;19.12;100.00;100383.81;5042224;28;20217;-78
2023/09/13 03:39:25;;;;;;;106.82;100.13;;;;;;;19.07;100.00;100380.38;5033705;28;20234;-78
2023/09/13 03:41:52;;;;;;;73.68;61.45;;;;;;;19.07;100.00;100383.06;5029269;28;20234;-78
2023/09/13 03:44:18;;;;;;;79.03;73.07;;;;;;;19.12;100.00;100385.59;5030872;28;20603;-79
2023/09/13 03:46:45;;;;;;;65.78;60.13;;;;;;;19.06;100.00;100383.97;5022055;28;20237;-78
2023/09/13 03:49:12;;;;;;;78.15;72.50;;;;;;;19.02;100.00;100378.72;5052494;28;20302;-78
2023/09/13 03:51:39;;;;;;;84.22;78.28;;;;;;;18.97;100.00;100375.28;5041852;28;20226;-78
2023/09/13 03:54:05;;;;;;;59.65;54.15;;;;;;;18.90;100.00;100371.91;5042358;28;20238;-78
2023/09/13 03:56:32;;;;;;;51.50;46.85;;;;;;;18.94;100.00;100373.56;5035569;28;20223;-78
2023/09/13 03:58:59;;;;;;;68.93;48.03;;;;;;;19.02;100.00;100379.59;5031254;28;20230;-78
2023/09/13 04:01:26;;;;;;;68.45;62.70;;;;;;;19.06;100.00;100375.06;5023802;28;20230;-78
2023/09/13 04:03:53;;;;;;;54.50;46.35;;;;;;;19.12;100.00;100381.13;5015405;28;20242;-79
2023/09/13 04:06:20;;;;;;;41.25;37.10;;;;;;;19.08;100.00;100373.22;5019732;28;20740;-79
2023/09/13 04:08:47;;;;;;;52.92;40.63;;;;;;;19.01;100.00;100371.63;5032617;28;20307;-79
2023/09/13 04:11:14;;;;;;;29.08;6.53;;;;;;;19.02;100.00;100373.38;5009085;28;20239;-78
2023/09/13 04:13:41;;;;;;;20.25;4.50;;;;;;;19.04;100.00;100375.09;5020877;28;20241;-79
2023/09/13 04:16:08;;;;;;;22.95;4.88;;;;;;;18.99;100.00;100377.00;5023644;28;20226;-79
2023/09/13 04:18:35;;;;;;;19.60;4.47;;;;;;;18.89;100.00;100372.81;5043610;28;20261;-79
2023/09/13 04:21:02;;;;;;;56.92;14.02;;;;;;;18.90;100.00;100371.91;5040484;28;20221;-79
2023/09/13 04:23:29;;;;;;;28.35;21.92;;;;;;;18.89;100.00;100372.81;5024414;28;20244;-79
2023/09/13 04:25:55;;;;;;;50.65;22.27;;;;;;;18.88;100.00;100376.41;5035079;28;20255;-79
2023/09/13 04:28:22;;;;;;;26.50;8.32;;;;;;;18.82;100.00;100379.25;5032086;28;20223;-79
2023/09/13 04:30:49;;;;;;;51.15;32.70;;;;;;;18.77;100.00;100381.16;5026572;28;20257;-78
2023/09/13 04:33:16;;;;;;;34.33;19.90;;;;;;;18.78;100.00;100383.81;5027317;28;20265;-79
2023/09/13 04:35:43;;;;;;;35.88;22.13;;;;;;;18.83;100.00;100384.56;5034598;28;20225;-78
2023/09/13 04:38:09;;;;;;;36.85;9.30;;;;;;;18.88;100.00;100400.53;5033099;28;20230;-77
2023/09/13 04:40:41;;;;;;;26.23;8.75;;;;;;;18.97;100.00;100399.41;5030887;28;20239;-79
2023/09/13 04:43:07;;;;;;;38.60;19.55;;;;;;;19.01;100.00;100404.66;5017894;28;20234;-79
2023/09/13 04:45:34;;;;;;;36.05;20.50;;;;;;;19.00;100.00;100400.22;5038418;28;20236;-77
2023/09/13 04:48:01;;;;;;;59.92;20.08;;;;;;;19.04;100.00;100401.00;5040870;28;20235;-78
2023/09/13 04:50:28;;;;;;;27.05;24.13;;;;;;;19.08;100.00;100402.69;5034019;28;20281;-78
2023/09/13 04:52:55;;;;;;;47.67;14.95;;;;;;;19.10;100.00;100403.53;5024439;28;20234;-78
2023/09/13 04:55:23;;;;;;;27.55;11.52;;;;;;;19.16;100.00;100408.72;5014204;28;20689;-78
2023/09/13 04:57:50;;;;;;;61.17;39.42;;;;;;;19.21;100.00;100413.97;5035101;28;20714;-78
2023/09/13 05:00:17;;;;;;;47.03;41.45;;;;;;;19.18;100.00;100406.88;5021160;28;20706;-78
2023/09/13 05:02:44;;;;;;;76.45;70.97;;;;;;;19.23;100.00;100406.75;5023902;28;20242;-79
2023/09/13 05:05:11;;;;;;;51.03;46.05;;;;;;;19.38;100.00;100422.44;5026497;28;20234;-78
2023/09/13 05:07:38;;;;;;;42.90;28.77;;;;;;;19.41;100.00;100411.63;5022020;28;20228;-78
2023/09/13 05:10:05;;;;;;;47.53;38.47;;;;;;;19.43;100.00;100413.34;5033145;28;20238;-78
2023/09/13 05:12:32;;;;;;;50.13;30.83;;;;;;;19.42;100.00;100414.28;5033301;28;20234;-78
2023/09/13 05:14:58;;;;;;;53.63;18.38;;;;;;;19.46;100.00;100407.00;5011607;28;20273;-79
2023/09/13 05:17:25;;;;;;;37.05;33.13;;;;;;;19.44;100.00;100407.06;5015194;28;20238;-78
2023/09/13 05:19:52;;;;;;;61.35;28.02;;;;;;;19.44;100.00;100412.41;5016140;28;20254;-78
2023/09/13 05:22:18;;;;;;;28.77;11.75;;;;;;;19.49;100.00;100418.53;5018783;28;20239;-78
2023/09/13 05:24:45;;;;;;;34.92;18.65;;;;;;;19.46;100.00;100415.94;5024341;28;20226;-78
2023/09/13 05:27:12;;;;;;;29.25;8.65;;;;;;;19.49;100.00;100418.53;5038832;28;20233;-78
2023/09/13 05:29:39;;;;;;;40.63;35.70;;;;;;;19.55;100.00;100412.19;5037960;28;20315;-78
2023/09/13 05:32:06;;;;;;;40.80;28.40;;;;;;;19.58;100.00;100414.78;5028591;28;20238;-78
2023/09/13 05:34:33;;;;;;;31.83;19.90;;;;;;;19.53;100.00;100423.88;5033072;28;20250;-77
2023/09/13 05:36:59;;;;;;;40.33;15.45;;;;;;;19.59;100.00;100421.03;5020057;28;20276;-78
2023/09/13 05:39:26;;;;;;;49.33;45.03;;;;;;;19.62;100.00;100440.59;5021683;28;20219;-78
2023/09/13 05:41:55;;;;;;;65.00;41.83;;;;;;;19.57;100.00;100449.69;5024437;28;20314;-77
2023/09/13 05:44:24;;;;;;;48.97;44.67;;;;;;;19.50;100.00;100460.56;5036842;28;20701;-77
2023/09/13 05:46:55;;;;;;;49.65;22.02;;;;;;;19.49;100.00;100461.47;5042581;28;20237;-77
2023/09/13 05:49:22;;;;;;;35.90;15.15;;;;;;;19.46;100.00;100474.94;5035274;28;20254;-78
2023/09/13 05:51:49;;;;;;;60.35;33.88;;;;;;;19.41;100.00;100468.81;5037884;28;20231;-78
2023/09/13 05:54:16;;;;;;;30.67;14.07;;;;;;;19.35;100.00;100465.44;5037069;28;20318;-78
2023/09/13 05:56:43;;;;;;;30.38;18.52;;;;;;;19.25;100.00;100472.84;5040754;28;20227;-78
2023/09/13 05:59:10;;;;;;;36.25;24.73;;;;;;;19.28;100.00;100470.06;5060605;28;20222;-77
2023/09/13 06:01:37;;;;;;;37.97;34.42;;;;;;;19.33;100.00;100484.25;5038702;28;20241;-78
2023/09/13 06:04:05;;;;;;;49.70;44.63;;;;;;;19.36;100.00;100481.47;5027036;28;20246;-77
2023/09/13 06:06:33;;;;;;;64.45;59.80;;;;;;;19.40;100.00;100493.88;5033021;28;20284;-77
2023/09/13 06:09:03;;;;;;;51.03;33.17;;;;;;;19.46;100.00;100492.84;5041751;28;20230;-78
2023/09/13 06:11:31;;;;;;;82.38;76.93;;;;;;;19.55;100.00;100502.50;5031185;28;20239;-78
2023/09/13 06:13:58;;;;;;;93.95;84.55;;;;;;;19.59;100.00;100498.81;5019874;28;20315;-78
2023/09/13 06:16:25;;;;;;;56.65;51.00;;;;;;;19.69;100.00;100505.72;5024197;28;20744;-79
2023/09/13 06:18:52;;;;;;;64.10;47.72;;;;;;;19.75;100.00;100500.16;5022119;28;20239;-79
2023/09/13 06:21:19;;;;;;;31.58;28.65;;;;;;;19.76;100.00;100499.25;5022751;28;20227;-79
2023/09/13 06:23:47;;;;;;;33.30;28.58;;;;;;;19.80;100.00;100483.03;5037770;28;20721;-80
2023/09/13 06:26:14;;;;;;;35.15;18.52;;;;;;;19.85;100.00;100482.88;5048547;28;20234;-79
2023/09/13 06:28:41;;;;;;;33.25;27.27;;;;;;;19.92;100.00;100465.69;5041133;28;20234;-79
2023/09/13 06:31:08;;;;;;;39.97;35.50;;;;;;;20.01;100.00;100456.47;5023136;28;20267;-79
2023/09/13 06:33:52;;;;;;;59.28;44.35;;;;;;;20.11;100.00;100452.59;5027514;28;20239;-79
2023/09/13 06:36:20;;;;;;;46.13;41.85;;;;;;;20.18;100.00;100455.97;5029541;28;20234;-79
2023/09/13 06:38:47;;;;;;;57.30;50.15;;;;;;;20.27;100.00;100459.28;5017121;28;20277;-79
2023/09/13 06:41:15;;;;;;;26.10;19.48;;;;;;;20.33;100.00;100453.72;5036842;28;20254;-78
2023/09/13 06:43:44;;;;;;;28.38;19.48;;;;;;;20.43;100.00;100452.53;5031660;28;20245;-79
2023/09/13 06:46:30;;;;;;;36.17;28.30;;;;;;;20.53;100.00;100457.63;5015799;28;20329;-79
2023/09/13 06:48:59;;;;;;;56.08;20.13;;;;;;;20.58;100.00;100461.94;5016218;28;20262;-78
2023/09/13 06:51:28;;;;;;;30.45;21.98;;;;;;;20.61;100.00;100469.00;5023890;28;20226;-78
2023/09/13 06:53:58;;;;;;;53.70;13.82;;;;;;;20.65;100.00;100471.53;5019606;28;20238;-79
2023/09/13 06:56:28;;;;;;;36.17;23.33;;;;;;;20.70;100.00;100485.72;5024721;28;20230;-80
2023/09/13 06:58:59;;;;;;;69.15;19.90;;;;;;;20.66;100.00;100475.13;4990385;28;20235;-79
2023/09/13 07:01:29;;;;;;;27.73;5.82;;;;;;;20.66;100.00;100481.38;5015529;28;20261;-80
2023/09/13 07:03:59;;;;;;;87.88;18.58;;;;;;;20.66;100.00;100477.81;5027672;28;20243;-81
2023/09/13 07:06:33;;;;;;;17.17;3.90;;;;;;;20.65;100.00;100470.66;5034473;28;20300;-79
2023/09/13 07:09:00;;;;;;;71.85;15.48;;;;;;;20.66;100.00;100472.44;5004287;28;20262;-81
2023/09/13 07:11:28;;;;;;;24.77;5.50;;;;;;;20.64;100.00;100471.59;5029729;28;20223;-80
2023/09/13 07:13:55;;;;;;;73.70;13.35;;;;;;;20.71;100.00;100478.53;5032957;28;20246;-79
2023/09/13 07:16:22;;;;;;;20.60;4.85;;;;;;;20.74;100.00;100483.81;5035791;28;20230;-80
2023/09/13 07:18:48;;;;;;;45.78;10.10;;;;;;;20.72;100.00;100481.19;4996022;28;20675;-79
2023/09/13 07:21:15;;;;;;;26.30;5.55;;;;;;;20.72;100.00;100475.81;5031042;28;20288;-78
2023/09/13 07:23:46;;;;;;;35.65;8.05;;;;;;;20.73;100.00;100472.19;5013136;28;20230;-79
2023/09/13 07:26:14;;;;;;;34.47;7.75;;;;;;;20.71;100.00;100471.34;5011533;28;20230;-80
2023/09/13 07:28:43;;;;;;;24.40;5.53;;;;;;;20.80;100.00;100474.66;5011350;28;20227;-79
2023/09/13 07:31:10;;;;;;;23.55;5.78;;;;;;;20.87;100.00;100481.63;5029521;28;20232;-80
2023/09/13 07:33:38;;;;;;;19.42;4.72;;;;;;;20.88;100.00;100483.41;5022443;28;20234;-78
2023/09/13 07:36:05;;;;;;;20.60;4.75;;;;;;;20.92;100.00;100477.00;5019263;28;20233;-78
2023/09/13 07:38:32;;;;;;;23.98;5.18;;;;;;;20.87;100.00;100474.47;5026704;28;20620;-78
2023/09/13 07:40:59;;;;;;;41.85;10.32;;;;;;;21.00;100.00;100483.88;5016556;28;20227;-79
2023/09/13 07:43:27;;;;;;;20.67;4.88;;;;;;;21.02;100.00;100481.13;5037776;28;20772;-78
2023/09/13 07:45:54;;;;;;;30.38;8.02;;;;;;;21.07;100.00;100476.47;5020991;28;20238;-79
2023/09/13 07:48:22;;;;;;;17.45;4.05;;;;;;;21.14;100.00;100493.28;5051250;28;20241;-78
2023/09/13 07:50:49;;;;;;;49.33;11.90;;;;;;;21.25;100.00;100505.50;5035428;28;20225;-79
2023/09/13 07:53:16;;;;;;;24.08;5.82;;;;;;;21.30;100.00;100508.91;5032906;28;20284;-79
2023/09/13 07:55:42;;;;;;;53.75;48.95;;;;;;;21.53;100.00;100520.69;5016467;28;20234;-78
2023/09/13 07:58:09;;;;;;;58.65;53.08;;;;;;;21.65;100.00;100526.53;5023669;28;20245;-79
2023/09/13 08:00:36;;;;;;;79.13;73.28;;;;;;;21.58;100.00;100507.94;5056949;28;20700;-78
2023/09/13 08:03:04;;;;;;;52.38;42.25;;;;;;;21.83;100.00;100516.91;5034109;28;20252;-79
2023/09/13 08:05:31;;;;;;;66.00;60.28;;;;;;;21.89;100.00;100505.03;5019854;28;20313;-79
2023/09/13 08:07:58;;;;;;;60.42;47.30;;;;;;;21.90;100.00;100487.94;5028168;28;20226;-78
2023/09/13 08:10:25;;;;;;;51.40;46.88;;;;;;;21.81;100.00;100482.91;5020886;28;20288;-78
2023/09/13 08:12:52;;;;;;;52.80;15.88;;;;;;;21.89;100.00;100475.41;5015475;28;20269;-79
2023/09/13 08:15:19;;;;;;;30.40;6.63;;;;;;;21.97;100.00;100473.31;5030489;28;20408;-79
2023/09/13 08:17:57;;;;;;;52.22;35.55;;;;;;;22.19;100.00;100487.81;5009605;28;20689;-78
2023/09/13 08:20:24;;;;;;;44.35;36.42;;;;;;;22.18;100.00;100477.97;5031036;28;20287;-78
2023/09/13 08:22:50;;;;;;;50.97;17.55;;;;;;;22.29;100.00;100485.63;5028320;28;20229;-79
2023/09/13 08:25:17;;;;;;;55.08;14.10;;;;;;;22.32;100.00;100482.84;5022261;28;20229;-79
2023/09/13 08:27:44;;;;;;;33.05;28.23;;;;;;;22.23;100.00;100453.56;5014696;28;20226;-80
2023/09/13 08:30:11;;;;;;;35.38;10.73;;;;;;;22.41;100.00;100469.00;5010904;28;20237;-79
2023/09/13 08:32:38;;;;;;;34.65;26.27;;;;;;;22.41;100.00;100447.44;5032677;28;20257;-79
2023/09/13 08:35:05;;;;;;;35.50;14.95;;;;;;;22.54;100.00;100455.91;5027005;28;20318;-78
2023/09/13 08:37:32;;;;;;;29.95;17.52;;;;;;;22.47;100.00;100443.63;5040439;28;20289;-79
2023/09/13 08:39:58;;;;;;;70.25;16.52;;;;;;;22.59;100.00;100443.13;4999086;28;20304;-79
2023/09/13 08:42:28;;;;;;;37.55;8.07;;;;;;;22.66;100.00;100439.25;5040250;28;20605;-79
2023/09/13 08:44:57;;;;;;;31.55;7.68;;;;;;;22.88;100.00;100445.56;5027192;28;20234;-78
2023/09/13 08:47:26;;;;;;;21.45;4.55;;;;;;;23.47;100.00;100470.97;5026667;28;20552;-79
2023/09/13 08:50:06;;;;;;;20.60;4.40;;;;;;;23.68;100.00;100453.84;5010492;28;20448;-78
2023/09/13 08:52:35;;;;;;;28.17;6.05;;;;;;;23.94;100.00;100434.66;5033036;28;20237;-78
2023/09/13 08:55:04;;;;;;;44.13;10.63;;;;;;;23.31;100.00;100323.19;5029933;28;20225;-79
2023/09/13 08:57:33;;;;;;;28.02;6.15;;;;;;;23.59;100.00;100359.78;5023653;28;20325;-79
2023/09/13 08:59:59;;;;;;;43.25;10.95;;;;;;;23.49;100.00;100326.03;5030722;28;20217;-80
2023/09/13 09:02:29;;;;;;;28.08;7.40;;;;;;;23.60;100.00;100315.63;5041331;28;20226;-79
2023/09/13 09:04:57;;;;;;;47.33;24.38;;;;;;;23.78;100.00;100341.78;5025533;28;20255;-79
2023/09/13 09:07:24;;;;;;;29.80;19.77;;;;;;;23.96;100.00;100339.16;5038851;28;20312;-79
2023/09/13 09:09:52;;;;;;;47.75;11.57;;;;;;;23.67;100.00;100282.00;5026704;28;20229;-79
2023/09/13 09:12:20;;;;;;;27.20;5.90;;;;;;;23.93;100.00;100318.56;5038085;28;20672;-79
2023/09/13 09:14:49;;;;;;;29.92;7.15;;;;;;;23.79;100.00;100289.53;5030524;28;20707;-79
2023/09/13 09:17:16;;;;;;;23.08;5.47;;;;;;;23.75;100.00;100266.31;5042516;28;20225;-79
2023/09/13 09:19:44;;;;;;;24.50;5.35;;;;;;;23.69;100.00;100247.72;5041655;28;20225;-79
2023/09/13 09:22:11;;;;;;;30.73;6.55;;;;;;;23.90;100.00;100254.78;5034025;28;20300;-79
2023/09/13 09:24:40;;;;;;;21.88;7.57;;;;;;;24.00;100.00;100233.59;5034789;28;20225;-79
2023/09/13 09:27:06;;;;;;;28.17;7.75;;;;;;;23.59;100.00;100181.63;5042087;28;20291;-79
2023/09/13 09:29:36;;;;;;;27.90;7.25;;;;;;;23.42;100.00;100186.91;5045642;28;20314;-79
2023/09/13 09:32:07;;;;;;;57.00;13.40;;;;;;;23.27;100.00;100189.34;5035403;28;20252;-79
2023/09/13 09:34:40;;;;;;;23.98;5.38;;;;;;;22.98;100.00;100201.50;5032944;28;20364;-79
2023/09/13 09:37:07;;;;;;;31.83;7.15;;;;;;;23.24;100.00;100265.03;5028973;28;20236;-79
2023/09/13 09:39:41;;;;;;;22.02;7.65;;;;;;;23.03;100.00;100238.19;5040535;28;20236;-79
2023/09/13 09:42:15;;;;;;;32.53;8.55;;;;;;;22.93;100.00;100240.41;5027603;28;20230;-79
2023/09/13 09:44:42;;;;;;;28.77;13.68;;;;;;;22.91;100.00;100245.88;5038820;28;20252;-79
2023/09/13 09:47:15;;;;;;;30.35;24.40;;;;;;;22.84;100.00;100252.47;5026506;28;20659;-78
2023/09/13 09:49:44;;;;;;;36.13;25.50;;;;;;;22.57;100.00;100226.72;5048833;28;20272;-78
2023/09/13 09:52:11;;;;;;;41.72;25.20;;;;;;;22.70;100.00;100252.19;5040114;28;20735;-79
2023/09/13 09:54:38;;;;;;;29.67;24.20;;;;;;;22.78;100.00;100271.59;5027325;28;20237;-79
2023/09/13 09:57:05;;;;;;;32.03;12.05;;;;;;;22.76;100.00;100261.81;5019570;28;20233;-79
2023/09/13 09:59:36;;;;;;;26.85;11.82;;;;;;;22.79;100.00;100259.88;5020440;28;20238;-79
2023/09/13 10:02:03;;;;;;;58.75;16.58;;;;;;;22.74;100.00;100242.13;5016349;28;20238;-78
2023/09/13 10:04:43;;;;;;;29.42;15.40;;;;;;;22.70;100.00;100233.31;5031500;28;20237;-79
2023/09/13 10:07:10;;;;;;;33.38;21.65;;;;;;;22.94;100.00;100264.63;5044330;28;20229;-79
2023/09/13 10:09:44;;;;;;;27.73;8.45;;;;;;;23.10;100.00;100280.09;5044970;28;20240;-79
2023/09/13 10:12:12;;;;;;;24.33;9.40;;;;;;;23.53;100.00;100317.72;5041697;28;20231;-78
2023/09/13 10:14:40;;;;;;;31.90;16.48;;;;;;;23.66;100.00;100312.66;5026626;28;20230;-78
2023/09/13 10:17:09;;;;;;;31.67;12.38;;;;;;;23.78;100.00;100322.00;5037608;28;20237;-79
2023/09/13 10:19:36;;;;;;;31.63;18.80;;;;;;;24.09;100.00;100330.38;5041855;28;20316;-79
2023/09/13 10:22:03;;;;;;;47.38;19.85;;;;;;;24.49;100.00;100353.66;5023904;28;20343;-79
2023/09/13 10:24:47;;;;;;;25.77;19.92;;;;;;;24.88;100.00;100331.00;5021006;28;20233;-79
2023/09/13 10:27:16;;;;;;;34.88;23.90;;;;;;;25.24;100.00;100325.53;5041606;28;20232;-79
2023/09/13 10:29:51;;;;;;;23.55;16.85;;;;;;;25.10;100.00;100250.50;5039028;28;20229;-79
2023/09/13 10:32:19;;;;;;;34.38;13.30;;;;;;;25.18;100.00;100240.13;5017074;28;20588;-79
2023/09/13 10:34:53;;;;;;;42.28;16.30;;;;;;;25.10;100.00;100199.06;5038775;28;20318;-79
2023/09/13 10:37:32;;;;;;;15.27;3.65;;;;;;;24.56;100.00;100054.16;5049523;28;20369;-80
2023/09/13 10:40:10;;;;;;;44.78;12.18;;;;;;;24.62;100.00;100006.97;5035931;28;20240;-79
2023/09/13 10:42:41;;;;;;;28.48;21.25;;;;;;;24.72;100.00;99982.06;5059498;28;20309;-79
2023/09/13 10:45:08;;;;;;;27.38;23.05;;;;;;;25.04;100.00;100009.16;5017618;28;20238;-79
2023/09/13 10:47:37;;;;;;;33.97;26.52;;;;;;;25.10;100.00;100001.56;5030175;28;20299;-79
2023/09/13 10:50:06;;;;;;;27.65;17.27;;;;;;;25.52;100.00;100029.78;5038578;28;20258;-79
2023/09/13 10:52:34;;;;;;;45.95;36.85;;;;;;;25.54;100.00;100003.47;5033682;28;20249;-79
2023/09/13 10:55:06;;;;;;;75.45;63.10;;;;;;;25.97;100.00;100037.00;5035866;28;20276;-79
2023/09/13 10:57:34;;;;;;;49.05;44.58;;;;;;;26.13;100.00;100023.44;5041364;28;20701;-79
2023/09/13 11:00:12;;;;;;;52.97;14.70;;;;;;;25.70;100.00;99943.88;5024497;28;20238;-80
2023/09/13 11:02:45;;;;;;;32.53;23.70;;;;;;;25.24;100.00;99964.69;5020730;28;20241;-79
2023/09/13 11:05:16;;;;;;;46.08;41.55;;;;;;;25.42;100.00;100029.44;5021461;28;20229;-79
2023/09/13 11:07:48;;;;;;;25.00;16.77;;;;;;;24.58;100.00;99960.31;5038213;28;20225;-79